createdAt,value
2022-08-09T00:02:13.180Z,101041.82
2022-08-09T00:06:19.204Z,101040.96
2022-08-09T00:08:31.510Z,101039.39
2022-08-09T00:11:24.950Z,101036.06
2022-08-09T00:14:17.271Z,101033.65
2022-08-09T00:17:10.196Z,101033.38
2022-08-09T00:20:18.343Z,101032.60
2022-08-09T00:23:08.359Z,101030.30
2022-08-09T00:26:14.846Z,101033.23
2022-08-09T00:29:03.776Z,101036.65
2022-08-09T00:32:01.123Z,101037.08
2022-08-09T00:34:52.212Z,101030.73
2022-08-09T00:37:40.544Z,101030.83
2022-08-09T00:40:31.201Z,101026.77
2022-08-09T00:44:15.310Z,101029.13
2022-08-09T00:46:57.782Z,101028.52
2022-08-09T00:49:38.492Z,101028.54
2022-08-09T00:52:31.173Z,101024.61
2022-08-09T00:56:04.206Z,101024.02
2022-08-09T00:58:36.119Z,101024.38
2022-08-09T01:01:44.737Z,101025.66
2022-08-09T01:05:13.990Z,101029.34
2022-08-09T01:08:51.447Z,101027.15
2022-08-09T01:11:55.752Z,101026.93
2022-08-09T01:15:06.006Z,101023.83
2022-08-09T01:18:10.517Z,101021.53
2022-08-09T01:22:05.528Z,101026.40
2022-08-09T01:25:28.135Z,101025.42
2022-08-09T01:28:17.139Z,101023.98
2022-08-09T01:31:11.859Z,101030.10
2022-08-09T01:34:22.894Z,101030.00
2022-08-09T01:37:15.359Z,101029.16
2022-08-09T01:40:12.176Z,101032.44
2022-08-09T01:43:12.698Z,101032.80
2022-08-09T01:46:01.903Z,101031.88
2022-08-09T01:48:53.256Z,101031.56
2022-08-09T01:51:54.427Z,101034.04
2022-08-09T01:54:49.298Z,101034.36
2022-08-09T01:57:46.241Z,101035.09
2022-08-09T02:00:46.208Z,101031.85
2022-08-09T02:03:43.041Z,101031.38
2022-08-09T02:06:58.397Z,101029.92
2022-08-09T02:10:01.192Z,101030.31
2022-08-09T02:12:56.256Z,101029.71
2022-08-09T02:15:50.705Z,101032.63
2022-08-09T02:18:42.731Z,101030.16
2022-08-09T02:21:39.524Z,101031.70
2022-08-09T02:24:37.971Z,101031.45
2022-08-09T02:27:57.967Z,101030.94
2022-08-09T02:30:53.026Z,101031.50
2022-08-09T02:34:06.480Z,101025.58
2022-08-09T02:36:59.435Z,101032.71
2022-08-09T02:40:01.775Z,101031.00
2022-08-09T02:42:53.819Z,101035.38
2022-08-09T02:45:45.431Z,101037.83
2022-08-09T02:48:39.418Z,101037.45
2022-08-09T02:51:42.979Z,101039.79
2022-08-09T02:54:33.429Z,101040.35
2022-08-09T02:57:25.506Z,101039.68
2022-08-09T03:00:25.397Z,101038.37
2022-08-09T03:03:21.352Z,101043.39
2022-08-09T03:06:14.780Z,101047.08
2022-08-09T03:09:04.287Z,101048.77
2022-08-09T03:12:10.506Z,101048.37
2022-08-09T03:15:00.843Z,101047.66
2022-08-09T03:17:57.886Z,101050.30
2022-08-09T03:20:48.714Z,101050.19
2022-08-09T03:23:38.367Z,101050.84
2022-08-09T03:26:30.883Z,101047.09
2022-08-09T03:29:22.733Z,101048.80
2022-08-09T03:32:12.537Z,101050.07
2022-08-09T03:35:01.086Z,101045.88
2022-08-09T03:37:56.127Z,101048.05
2022-08-09T03:40:46.571Z,101049.42
2022-08-09T03:43:34.566Z,101057.81
2022-08-09T03:46:27.484Z,101058.70
2022-08-09T03:49:19.185Z,101061.46
2022-08-09T03:52:11.330Z,101049.35
2022-08-09T03:55:03.918Z,101054.14
2022-08-09T03:58:06.621Z,101055.31
2022-08-09T04:01:04.446Z,101056.23
2022-08-09T04:04:02.308Z,101058.42
2022-08-09T04:06:53.031Z,101061.71
2022-08-09T04:09:44.432Z,101061.95
2022-08-09T04:12:50.821Z,101056.46
2022-08-09T04:16:17.823Z,101064.45
2022-08-09T04:18:47.759Z,101065.75
2022-08-09T04:21:40.097Z,101065.94
2022-08-09T04:24:30.292Z,101066.16
2022-08-09T04:27:22.269Z,101070.23
2022-08-09T04:30:16.884Z,101072.30
2022-08-09T04:33:04.846Z,101069.40
2022-08-09T04:35:56.014Z,101072.30
2022-08-09T04:38:44.479Z,101074.08
2022-08-09T04:41:33.906Z,101073.80
2022-08-09T04:44:31.867Z,101074.13
2022-08-09T04:47:22.836Z,101081.13
2022-08-09T04:50:10.976Z,101085.73
2022-08-09T04:52:59.428Z,101086.60
2022-08-09T04:55:58.883Z,101090.48
2022-08-09T04:58:48.553Z,101093.29
2022-08-09T05:01:39.051Z,101091.14
2022-08-09T05:04:30.734Z,101090.34
2022-08-09T05:07:20.168Z,101089.96
2022-08-09T05:10:09.321Z,101096.84
2022-08-09T05:12:58.025Z,101092.11
2022-08-09T05:15:52.306Z,101088.37
2022-08-09T05:18:58.813Z,101086.61
2022-08-09T05:21:55.304Z,101086.30
2022-08-09T05:24:43.502Z,101089.59
2022-08-09T05:27:44.373Z,101088.09
2022-08-09T05:30:34.726Z,101090.55
2022-08-09T05:33:26.546Z,101096.45
2022-08-09T05:36:21.247Z,101097.55
2022-08-09T05:39:28.452Z,101097.73
2022-08-09T05:42:21.908Z,101098.48
2022-08-09T05:45:16.291Z,101098.14
2022-08-09T05:48:05.243Z,101097.03
2022-08-09T05:51:16.623Z,101101.14
2022-08-09T05:54:05.542Z,101099.19
2022-08-09T05:56:54.821Z,101097.85
2022-08-09T05:59:43.439Z,101096.97
2022-08-09T06:02:33.269Z,101092.40
2022-08-09T06:05:31.351Z,101088.30
2022-08-09T06:08:31.242Z,101088.87
2022-08-09T06:11:18.818Z,101090.64
2022-08-09T06:14:12.715Z,101080.58
2022-08-09T06:17:00.613Z,101083.52
2022-08-09T06:19:56.981Z,101086.40
2022-08-09T06:22:45.665Z,101088.26
2022-08-09T06:25:34.594Z,101083.39
2022-08-09T06:28:27.413Z,101086.80
2022-08-09T06:31:30.765Z,101089.27
2022-08-09T06:34:20.277Z,101087.95
2022-08-09T06:37:11.094Z,101087.88
2022-08-09T06:40:01.300Z,101085.48
2022-08-09T06:42:58.706Z,101087.40
2022-08-09T06:46:06.450Z,101086.59
2022-08-09T06:48:59.687Z,101094.19
2022-08-09T06:51:48.573Z,101084.27
2022-08-09T06:54:37.001Z,101087.89
2022-08-09T06:58:02.231Z,101090.41
2022-08-09T07:00:49.542Z,101079.34
2022-08-09T07:03:52.605Z,101082.09
2022-08-09T07:06:42.211Z,101083.73
2022-08-09T07:09:54.165Z,101084.29
2022-08-09T07:12:41.311Z,101080.27
2022-08-09T07:16:36.260Z,101088.98
2022-08-09T07:18:38.642Z,101084.04
2022-08-09T07:21:27.013Z,101086.39
2022-08-09T07:24:18.991Z,101083.42
2022-08-09T07:27:27.395Z,101087.55
2022-08-09T07:30:21.725Z,101086.86
2022-08-09T07:33:16.548Z,101090.51
2022-08-09T07:36:05.270Z,101091.68
2022-08-09T07:39:00.785Z,101091.61
2022-08-09T07:41:50.391Z,101101.00
2022-08-09T07:44:50.946Z,101098.36
2022-08-09T07:47:49.662Z,101098.40
2022-08-09T07:50:52.848Z,101103.91
2022-08-09T07:54:06.976Z,101100.79
2022-08-09T07:56:50.121Z,101098.41
2022-08-09T07:59:45.790Z,101095.91
2022-08-09T08:02:42.829Z,101097.63
2022-08-09T08:05:39.094Z,101095.23
2022-08-09T08:09:01.830Z,101095.86
2022-08-09T08:12:10.953Z,101093.02
2022-08-09T08:14:56.141Z,101093.88
2022-08-09T08:17:57.993Z,101089.71
2022-08-09T08:20:46.906Z,101090.54
2022-08-09T08:23:35.513Z,101092.88
2022-08-09T08:26:26.533Z,101091.65
2022-08-09T08:29:39.595Z,101088.73
2022-08-09T08:32:33.631Z,101086.15
2022-08-09T08:35:22.909Z,101084.90
2022-08-09T08:38:11.616Z,101087.34
2022-08-09T08:41:06.246Z,101079.73
2022-08-09T08:43:55.703Z,101078.84
2022-08-09T08:47:02.988Z,101079.09
2022-08-09T08:49:56.514Z,101082.35
2022-08-09T08:52:57.683Z,101078.89
2022-08-09T08:55:48.538Z,101079.96
2022-08-09T08:58:37.643Z,101080.92
2022-08-09T09:01:35.665Z,101077.96
2022-08-09T09:04:47.535Z,101079.48
2022-08-09T09:07:44.970Z,101085.42
2022-08-09T09:10:34.627Z,101085.86
2022-08-09T09:13:24.845Z,101076.73
2022-08-09T09:16:35.105Z,101081.20
2022-08-09T09:19:40.324Z,101079.91
2022-08-09T09:22:29.636Z,101083.51
2022-08-09T09:26:04.994Z,101084.31
2022-08-09T09:29:03.440Z,101088.21
2022-08-09T09:32:06.892Z,101087.77
2022-08-09T09:35:09.899Z,101079.23
2022-08-09T09:37:59.226Z,101080.23
2022-08-09T09:40:50.577Z,101082.15
2022-08-09T09:43:41.261Z,101088.48
2022-08-09T09:46:42.907Z,101088.07
2022-08-09T09:50:14.613Z,101093.19
2022-08-09T09:52:56.144Z,101090.29
2022-08-09T09:56:05.584Z,101089.31
2022-08-09T09:58:53.574Z,101088.52
2022-08-09T10:01:47.310Z,101088.28
2022-08-09T10:04:35.943Z,101090.46
2022-08-09T10:07:30.132Z,101090.24
2022-08-09T10:10:31.629Z,101081.23
2022-08-09T10:13:42.910Z,101079.06
2022-08-09T10:16:57.723Z,101082.41
2022-08-09T10:19:39.880Z,101086.69
2022-08-09T10:22:37.253Z,101091.85
2022-08-09T10:25:34.756Z,101090.20
2022-08-09T10:28:38.259Z,101090.35
2022-08-09T10:34:35.988Z,101090.91
2022-08-09T10:37:25.559Z,101088.77
2022-08-09T10:40:34.667Z,101088.13
2022-08-09T10:43:24.170Z,101091.77
2022-08-09T10:46:52.351Z,101089.98
2022-08-09T10:49:51.390Z,101088.98
2022-08-09T10:53:04.408Z,101088.60
2022-08-09T10:56:30.868Z,101090.94
2022-08-09T10:59:31.329Z,101092.10
2022-08-09T11:03:14.173Z,101085.97
2022-08-09T11:06:19.369Z,101079.79
2022-08-09T11:09:15.884Z,101079.39
2022-08-09T11:12:29.787Z,101080.58
2022-08-09T11:15:33.974Z,101076.11
2022-08-09T11:18:44.999Z,101073.89
2022-08-09T11:21:57.055Z,101073.48
2022-08-09T11:25:14.570Z,101073.40
2022-08-09T11:28:34.669Z,101074.29
2022-08-09T11:31:39.658Z,101066.66
2022-08-09T11:34:52.386Z,101068.11
2022-08-09T11:37:43.284Z,101065.77
2022-08-09T11:40:38.150Z,101060.85
2022-08-09T11:43:27.032Z,101064.52
2022-08-09T11:46:33.370Z,101062.11
2022-08-09T11:50:53.143Z,101064.52
2022-08-09T11:53:21.434Z,101067.30
2022-08-09T11:56:20.994Z,101070.88
2022-08-09T11:59:30.539Z,101068.32
2022-08-09T12:02:37.127Z,101065.64
2022-08-09T12:05:39.572Z,101066.17
2022-08-09T12:08:30.486Z,101067.23
2022-08-09T12:11:23.539Z,101069.34
2022-08-09T12:14:18.010Z,101067.71
2022-08-09T12:17:34.676Z,101072.52
2022-08-09T12:20:27.595Z,101081.17
2022-08-09T12:23:15.854Z,101082.77
2022-08-09T12:26:19.712Z,101086.36
2022-08-09T12:29:33.090Z,101085.39
2022-08-09T12:32:27.383Z,101085.69
2022-08-09T12:35:19.359Z,101085.59
2022-08-09T12:38:37.999Z,101079.42
2022-08-09T12:41:38.913Z,101076.94
2022-08-09T12:44:28.729Z,101079.05
2022-08-09T12:47:25.719Z,101084.88
2022-08-09T12:50:24.871Z,101077.80
2022-08-09T12:53:44.802Z,101079.90
2022-08-09T12:56:44.147Z,101076.02
2022-08-09T12:59:40.099Z,101075.36
2022-08-09T13:02:56.545Z,101073.74
2022-08-09T13:05:51.677Z,101074.76
2022-08-09T13:09:14.014Z,101074.47
2022-08-09T13:12:05.766Z,101078.17
2022-08-09T13:15:07.918Z,101073.53
2022-08-09T13:18:09.653Z,101071.19
2022-08-09T13:22:37.482Z,101070.02
2022-08-09T13:24:48.356Z,101067.25
2022-08-09T13:27:48.709Z,101069.36
2022-08-09T13:32:18.119Z,101072.09
2022-08-09T13:34:10.318Z,101076.89
2022-08-09T13:37:06.239Z,101073.17
2022-08-09T13:41:56.662Z,101068.83
2022-08-09T13:43:09.546Z,101068.36
2022-08-09T13:46:43.689Z,101068.20
2022-08-09T13:49:06.051Z,101064.41
2022-08-09T13:52:09.265Z,101064.70
2022-08-09T13:54:59.974Z,101063.09
2022-08-09T13:57:56.091Z,101064.18
2022-08-09T14:00:52.970Z,101071.95
2022-08-09T14:04:03.923Z,101079.65
2022-08-09T14:07:03.552Z,101081.54
2022-08-09T14:09:53.351Z,101088.45
2022-08-09T14:12:43.446Z,101089.91
2022-08-09T14:16:10.171Z,101094.61
2022-08-09T14:18:45.298Z,101095.83
2022-08-09T14:21:37.122Z,101094.45
2022-08-09T14:24:32.015Z,101093.16
2022-08-09T14:27:20.902Z,101093.30
2022-08-09T14:30:37.205Z,101087.48
2022-08-09T14:33:21.075Z,101085.84
2022-08-09T14:36:20.329Z,101086.21
2022-08-09T14:39:12.341Z,101086.36
2022-08-09T14:42:00.207Z,101085.42
2022-08-09T14:45:00.276Z,101087.01
2022-08-09T14:47:57.067Z,101086.33
2022-08-09T14:50:47.897Z,101088.70
2022-08-09T14:53:39.892Z,101088.84
2022-08-09T14:56:33.747Z,101084.67
2022-08-09T14:59:22.004Z,101085.07
2022-08-09T15:02:09.983Z,101087.75
2022-08-09T15:05:01.168Z,101085.52
2022-08-09T15:07:56.661Z,101084.94
2022-08-09T15:11:00.313Z,101082.53
2022-08-09T15:14:01.680Z,101085.44
2022-08-09T15:16:52.802Z,101085.38
2022-08-09T15:19:59.901Z,101087.91
2022-08-09T15:22:50.091Z,101087.71
2022-08-09T15:25:51.150Z,101087.71
2022-08-09T15:28:41.984Z,101089.24
2022-08-09T15:31:41.771Z,101086.27
2022-08-09T15:34:34.524Z,101085.27
2022-08-09T15:37:36.981Z,101087.58
2022-08-09T15:40:32.238Z,101094.75
2022-08-09T15:43:36.770Z,101086.58
2022-08-09T15:46:32.884Z,101085.33
2022-08-09T15:49:24.023Z,101083.02
2022-08-09T15:52:13.847Z,101080.96
2022-08-09T15:55:06.378Z,101079.64
2022-08-09T15:57:54.586Z,101075.40
2022-08-09T16:00:42.577Z,101073.68
2022-08-09T16:03:38.548Z,101084.69
2022-08-09T16:06:37.388Z,101080.21
2022-08-09T16:09:32.544Z,101079.37
2022-08-09T16:12:35.144Z,101075.77
2022-08-09T16:16:12.274Z,101078.55
2022-08-09T16:18:34.300Z,101080.04
2022-08-09T16:21:25.711Z,101075.63
2022-08-09T16:24:30.215Z,101079.19
2022-08-09T16:27:22.675Z,101078.02
2022-08-09T16:30:15.228Z,101080.07
2022-08-09T16:33:15.715Z,101077.58
2022-08-09T16:36:11.762Z,101075.29
2022-08-09T16:39:05.595Z,101070.98
2022-08-09T16:42:04.134Z,101069.39
2022-08-09T16:44:52.724Z,101066.30
2022-08-09T16:48:42.959Z,101069.73
2022-08-09T16:50:58.677Z,101070.42
2022-08-09T16:54:24.908Z,101075.74
2022-08-09T16:56:56.532Z,101069.92
2022-08-09T16:59:50.335Z,101076.05
2022-08-09T17:02:47.211Z,101075.92
2022-08-09T17:06:08.775Z,101077.03
2022-08-09T17:09:03.009Z,101080.33
2022-08-09T17:11:53.344Z,101085.73
2022-08-09T17:14:46.403Z,101086.71
2022-08-09T17:17:50.736Z,101086.09
2022-08-09T17:20:46.663Z,101087.88
2022-08-09T17:24:20.890Z,101085.90
2022-08-09T17:26:53.514Z,101089.99
2022-08-09T17:29:45.573Z,101094.09
2022-08-09T17:32:37.870Z,101095.67
2022-08-09T17:35:26.399Z,101094.73
2022-08-09T17:38:33.967Z,101095.88
2022-08-09T17:41:38.751Z,101103.20
2022-08-09T17:44:42.350Z,101107.41
2022-08-09T17:47:49.913Z,101104.85
2022-08-09T17:50:55.794Z,101107.27
2022-08-09T17:53:52.079Z,101114.39
2022-08-09T17:56:42.545Z,101110.59
2022-08-09T17:59:38.146Z,101109.66
2022-08-09T18:02:33.104Z,101103.12
2022-08-09T18:05:22.426Z,101109.86
2022-08-09T18:08:18.167Z,101113.08
2022-08-09T18:11:10.256Z,101112.82
2022-08-09T18:14:13.364Z,101110.54
2022-08-09T18:17:03.547Z,101107.80
2022-08-09T18:21:00.195Z,101110.41
2022-08-09T18:23:05.274Z,101112.58
2022-08-09T18:25:57.759Z,101108.81
2022-08-09T18:30:42.421Z,101107.83
2022-08-09T18:31:56.582Z,101115.37
2022-08-09T18:34:48.517Z,101120.89
2022-08-09T18:37:47.869Z,101124.20
2022-08-09T18:40:46.392Z,101128.38
2022-08-09T18:43:34.994Z,101131.05
2022-08-09T18:46:47.765Z,101132.30
2022-08-09T18:49:46.439Z,101132.48
2022-08-09T18:52:35.737Z,101138.02
2022-08-09T18:55:45.651Z,101137.55
2022-08-09T18:58:34.640Z,101144.04
2022-08-09T19:01:27.116Z,101144.01
2022-08-09T19:04:15.166Z,101143.55
2022-08-09T19:07:05.356Z,101144.41
2022-08-09T19:10:14.639Z,101143.95
2022-08-09T19:13:20.665Z,101142.27
2022-08-09T19:16:20.844Z,101142.47
2022-08-09T19:19:25.129Z,101142.17
2022-08-09T19:22:17.566Z,101137.11
2022-08-09T19:25:42.713Z,101142.20
2022-08-09T19:28:16.160Z,101140.95
2022-08-09T19:31:04.117Z,101144.00
2022-08-09T19:33:57.031Z,101144.34
2022-08-09T19:36:46.521Z,101144.46
2022-08-09T19:40:02.417Z,101140.38
2022-08-09T19:42:44.338Z,101143.45
2022-08-09T19:45:40.240Z,101141.54
2022-08-09T19:49:02.581Z,101145.77
2022-08-09T19:51:40.309Z,101143.95
2022-08-09T19:54:36.914Z,101144.10
2022-08-09T19:57:25.797Z,101143.74
2022-08-09T20:00:15.754Z,101143.34
2022-08-09T20:04:17.413Z,101143.71
2022-08-09T20:06:23.641Z,101145.94
2022-08-09T20:09:44.510Z,101142.67
2022-08-09T20:12:29.854Z,101149.36
2022-08-09T20:16:35.864Z,101144.75
2022-08-09T20:18:33.912Z,101144.61
2022-08-09T20:21:40.785Z,101153.52
2022-08-09T20:24:34.441Z,101158.09
2022-08-09T20:27:29.348Z,101153.05
2022-08-09T20:30:21.825Z,101154.60
2022-08-09T20:33:15.630Z,101158.94
2022-08-09T20:36:05.383Z,101156.70
2022-08-09T20:39:28.805Z,101154.16
2022-08-09T20:42:07.629Z,101158.20
2022-08-09T20:45:56.529Z,101160.04
2022-08-09T20:48:11.072Z,101156.70
2022-08-09T20:51:01.006Z,101154.20
2022-08-09T20:53:49.672Z,101155.71
2022-08-09T20:56:37.769Z,101153.77
2022-08-09T21:00:20.932Z,101157.88
2022-08-09T21:02:38.803Z,101156.85
2022-08-09T21:05:51.830Z,101158.29
2022-08-09T21:08:37.958Z,101160.06
2022-08-09T21:14:39.761Z,101158.58
2022-08-09T21:18:29.840Z,101159.19
2022-08-09T21:20:38.636Z,101159.71
2022-08-09T21:23:47.769Z,101161.23
2022-08-09T21:26:34.817Z,101158.35
2022-08-09T21:29:23.498Z,101157.81
2022-08-09T21:32:18.621Z,101159.08
2022-08-09T21:35:08.013Z,101160.36
2022-08-09T21:37:58.977Z,101158.80
2022-08-09T21:40:50.438Z,101161.23
2022-08-09T21:43:56.503Z,101163.70
2022-08-09T21:46:47.819Z,101166.51
2022-08-09T21:49:42.620Z,101164.95
2022-08-09T21:52:33.885Z,101167.34
2022-08-09T21:55:29.737Z,101170.34
2022-08-09T21:58:29.124Z,101173.02
2022-08-09T22:01:26.146Z,101175.84
2022-08-09T22:04:55.281Z,101176.81
2022-08-09T22:07:52.215Z,101176.75
2022-08-09T22:11:50.098Z,101174.59
2022-08-09T22:13:55.842Z,101174.67
2022-08-09T22:16:46.948Z,101173.91
2022-08-09T22:19:58.104Z,101169.95
2022-08-09T22:22:45.454Z,101166.96
2022-08-09T22:26:06.308Z,101163.30
2022-08-09T22:28:55.805Z,101169.92
2022-08-09T22:31:56.231Z,101171.74
2022-08-09T22:34:59.078Z,101168.92
2022-08-09T22:38:07.216Z,101173.52
2022-08-09T22:41:03.986Z,101173.70
2022-08-09T22:44:02.336Z,101165.39
2022-08-09T22:48:15.374Z,101172.89
2022-08-09T22:50:08.857Z,101174.92
2022-08-09T22:52:58.939Z,101176.22
2022-08-09T22:56:30.893Z,101173.77
2022-08-09T22:58:54.724Z,101176.31
2022-08-09T23:01:45.685Z,101173.81
2022-08-09T23:04:33.779Z,101172.89
2022-08-09T23:08:27.692Z,101175.61
2022-08-09T23:10:53.584Z,101175.02
2022-08-09T23:13:53.703Z,101178.02
2022-08-09T23:16:42.054Z,101175.63
2022-08-09T23:19:29.890Z,101176.33
2022-08-09T23:22:38.104Z,101175.11
2022-08-09T23:25:25.942Z,101175.33
2022-08-09T23:28:15.429Z,101174.68
2022-08-09T23:31:04.424Z,101175.67
2022-08-09T23:33:52.419Z,101176.08
2022-08-09T23:36:40.356Z,101177.30
2022-08-09T23:39:28.261Z,101179.27
2022-08-09T23:42:16.890Z,101178.39
2022-08-09T23:45:05.914Z,101180.55
2022-08-09T23:47:57.027Z,101179.41
2022-08-09T23:50:45.179Z,101176.23
2022-08-09T23:53:35.256Z,101177.20
2022-08-09T23:56:52.809Z,101176.87
2022-08-09T23:59:52.412Z,101176.59
